Aviation Digital Data Service (ADDS)

Output produced by METARs form (2101 UTC 23 April 2018)
found at http://aviationweather.gov/adds/metars/
 
KBPT 232053Z 29009G19KT 10SM CLR 26/12 A2996 RMK AO2 SLP143 T02560122 58023